| Date | Time | Temp. (oF) | Dew Point (oF) | Rel. Hum. (%) | Press. (in.) | Wind Dir. | Wind Speed (mph) | Hourly Rainfall (in.) |
|
|---|---|---|---|---|---|---|---|---|---|
| 1 | 03/01 | 00:00 | 26 | 12 | 57 | 30.29 | WNW | 5 | 0.00 |
| 2 | 02/28 | 23:00 | 28 | 12 | 52 | 30.27 | WNW | 2 | 0.00 |
| 3 | 02/28 | 22:00 | 28 | 12 | 51 | 30.24 | WNW | 1 | 0.00 |
| 4 | 02/28 | 21:00 | 30 | 12 | 47 | 30.22 | W | 2 | 0.00 |
| 5 | 02/28 | 20:00 | 31 | 12 | 45 | 30.19 | SSW | 3 | 0.00 |
| 6 | 02/28 | 19:00 | 32 | 11 | 42 | 30.16 | WNW | 2 | 0.00 |
| 7 | 02/28 | 18:00 | 35 | 12 | 39 | 30.12 | NW | 2 | 0.00 |
| 8 | 02/28 | 17:00 | 38 | 12 | 35 | 30.09 | WNW | 7 | 0.00 |
| 9 | 02/28 | 16:00 | 38 | 12 | 35 | 30.07 | S | 7 | 0.00 |
| 10 | 02/28 | 15:00 | 39 | 14 | 37 | 30.08 | NW | 7 | 0.00 |
| 11 | 02/28 | 14:00 | 38 | 16 | 41 | 30.08 | WSW | 7 | 0.00 |
| 12 | 02/28 | 13:00 | 36 | 14 | 41 | 30.10 | SSW | 8 | 0.00 |
| 13 | 02/28 | 12:00 | 34 | 14 | 44 | 30.12 | WNW | 10 | 0.00 |
| 14 | 02/28 | 11:00 | 33 | 15 | 48 | 30.12 | WNW | 14 | 0.00 |
| 15 | 02/28 | 10:00 | 31 | 14 | 50 | 30.11 | WSW | 8 | 0.00 |
| 16 | 02/28 | 09:00 | 29 | 14 | 55 | 30.10 | WNW | 10 | 0.00 |
| 17 | 02/28 | 08:00 | 27 | 14 | 58 | 30.08 | W | 10 | 0.00 |
| 18 | 02/28 | 07:00 | 25 | 11 | 55 | 30.04 | WNW | 3 | 0.00 |
| 19 | 02/28 | 06:00 | 25 | 11 | 56 | 30.01 | NW | 7 | 0.00 |
| 20 | 02/28 | 05:00 | 26 | 13 | 58 | 29.97 | W | 10 | 0.00 |
| 21 | 02/28 | 04:00 | 26 | 13 | 59 | 29.93 | W | 6 | 0.00 |
| 22 | 02/28 | 03:00 | 27 | 14 | 58 | 29.91 | NW | 13 | 0.00 |
| 23 | 02/28 | 02:00 | 26 | 13 | 59 | 29.89 | SW | 6 | 0.00 |
| 24 | 02/28 | 01:00 | 25 | 13 | 60 | 29.87 | WNW | 11 | 0.00 |